createdAt,value
2023-06-15T00:01:18.982Z,17.61
2023-06-15T00:03:46.455Z,17.63
2023-06-15T00:06:13.821Z,17.65
2023-06-15T00:08:41.245Z,17.68
2023-06-15T00:11:08.563Z,17.71
2023-06-15T00:13:37.319Z,17.72
2023-06-15T00:16:04.572Z,17.72
2023-06-15T00:18:33.024Z,17.73
2023-06-15T00:21:01.401Z,17.74
2023-06-15T00:23:30.211Z,17.75
2023-06-15T00:25:57.548Z,17.75
2023-06-15T00:28:25.407Z,17.74
2023-06-15T00:30:52.358Z,17.73
2023-06-15T00:33:19.491Z,17.68
2023-06-15T00:35:46.863Z,17.65
2023-06-15T00:38:13.880Z,17.66
2023-06-15T00:40:41.171Z,17.66
2023-06-15T00:43:08.212Z,17.65
2023-06-15T00:45:36.622Z,17.65
2023-06-15T00:48:04.513Z,17.62
2023-06-15T00:50:31.521Z,17.60
2023-06-15T00:53:03.680Z,17.60
2023-06-15T00:55:32.654Z,17.57
2023-06-15T00:58:00.249Z,17.55
2023-06-15T01:00:30.861Z,17.55
2023-06-15T01:02:58.033Z,17.54
2023-06-15T01:05:26.486Z,17.50
2023-06-15T01:07:53.429Z,17.45
2023-06-15T01:10:22.773Z,17.41
2023-06-15T01:12:51.616Z,17.38
2023-06-15T01:15:19.136Z,17.37
2023-06-15T01:17:47.061Z,17.36
2023-06-15T01:20:22.391Z,17.33
2023-06-15T01:23:11.487Z,17.32
2023-06-15T01:25:42.797Z,17.29
2023-06-15T01:28:11.102Z,17.28
2023-06-15T01:30:44.360Z,17.31
2023-06-15T01:33:12.241Z,17.32
2023-06-15T01:35:39.823Z,17.32
2023-06-15T01:38:09.807Z,17.32
2023-06-15T01:40:40.136Z,17.30
2023-06-15T01:43:09.234Z,17.28
2023-06-15T01:45:36.176Z,17.26
2023-06-15T01:48:03.417Z,17.24
2023-06-15T01:50:31.391Z,17.23
2023-06-15T01:52:59.499Z,17.24
2023-06-15T01:55:26.713Z,17.26
2023-06-15T01:57:54.479Z,17.25
2023-06-15T02:00:23.381Z,17.24
2023-06-15T02:02:51.274Z,17.23
2023-06-15T02:05:18.862Z,17.21
2023-06-15T02:07:49.632Z,17.22
2023-06-15T02:10:16.993Z,17.24
2023-06-15T02:12:44.044Z,17.24
2023-06-15T02:15:19.037Z,17.24
2023-06-15T02:17:47.068Z,17.26
2023-06-15T02:20:14.566Z,17.25
2023-06-15T02:22:41.643Z,17.25
2023-06-15T02:25:09.422Z,17.24
2023-06-15T02:27:36.473Z,17.24
2023-06-15T02:30:05.270Z,17.24
2023-06-15T02:32:37.158Z,17.28
2023-06-15T02:35:08.962Z,17.29
2023-06-15T02:37:37.670Z,17.28
2023-06-15T02:40:06.361Z,17.23
2023-06-15T02:42:33.896Z,17.23
2023-06-15T02:45:01.878Z,17.24
2023-06-15T02:47:30.722Z,17.26
2023-06-15T02:49:59.968Z,17.28
2023-06-15T02:52:27.622Z,17.32
2023-06-15T02:54:57.322Z,17.36
2023-06-15T02:57:25.187Z,17.38
2023-06-15T03:00:14.271Z,17.39
2023-06-15T03:02:47.148Z,17.41
2023-06-15T03:05:14.527Z,17.45
2023-06-15T03:07:48.323Z,17.47
2023-06-15T03:10:38.402Z,17.51
2023-06-15T03:13:05.954Z,17.55
2023-06-15T03:15:33.610Z,17.57
2023-06-15T03:18:01.320Z,17.60
2023-06-15T03:20:33.271Z,17.60
2023-06-15T03:23:01.099Z,17.60
2023-06-15T03:25:30.409Z,17.63
2023-06-15T03:28:00.212Z,17.66
2023-06-15T03:30:28.321Z,17.71
2023-06-15T03:32:55.702Z,17.75
2023-06-15T03:35:23.213Z,17.79
2023-06-15T03:37:51.066Z,17.85
2023-06-15T03:40:18.013Z,17.91
2023-06-15T03:42:45.276Z,17.94
2023-06-15T03:45:12.205Z,17.99
2023-06-15T03:47:39.608Z,18.05
2023-06-15T03:50:07.338Z,18.11
2023-06-15T03:52:36.730Z,18.15
2023-06-15T03:55:04.389Z,18.16
2023-06-15T03:57:31.655Z,18.13
2023-06-15T03:59:58.594Z,18.11
2023-06-15T04:02:25.647Z,18.09
2023-06-15T04:04:57.654Z,18.10
2023-06-15T04:07:25.363Z,18.18
2023-06-15T04:09:52.417Z,18.25
2023-06-15T04:12:19.461Z,18.33
2023-06-15T04:14:49.086Z,18.43
2023-06-15T04:17:17.259Z,18.49
2023-06-15T04:19:45.201Z,18.54
2023-06-15T04:22:12.303Z,18.58
2023-06-15T04:24:39.682Z,18.63
2023-06-15T04:27:07.601Z,18.67
2023-06-15T04:29:35.343Z,18.71
2023-06-15T04:32:04.462Z,18.73
2023-06-15T04:34:33.672Z,18.72
2023-06-15T04:37:01.050Z,18.76
2023-06-15T04:39:29.875Z,18.82
2023-06-15T04:42:03.121Z,18.88
2023-06-15T04:44:31.448Z,18.93
2023-06-15T04:46:58.910Z,18.99
2023-06-15T04:49:26.782Z,19.01
2023-06-15T04:51:53.936Z,18.99
2023-06-15T04:54:21.071Z,18.93
2023-06-15T04:56:48.125Z,18.90
2023-06-15T04:59:15.188Z,18.86
2023-06-15T05:01:42.217Z,18.85
2023-06-15T05:04:22.881Z,18.84
2023-06-15T05:06:50.272Z,18.86
2023-06-15T05:09:20.148Z,18.88
2023-06-15T05:11:48.428Z,18.94
2023-06-15T05:14:16.399Z,19.00
2023-06-15T05:16:43.659Z,19.06
2023-06-15T05:19:11.421Z,19.10
2023-06-15T05:21:39.069Z,19.17
2023-06-15T05:24:07.214Z,19.24
2023-06-15T05:26:34.801Z,19.29
2023-06-15T05:29:08.405Z,19.33
2023-06-15T05:31:36.083Z,19.39
2023-06-15T05:34:03.932Z,19.47
2023-06-15T05:36:55.332Z,19.55
2023-06-15T05:39:22.713Z,19.66
2023-06-15T05:41:50.295Z,19.81
2023-06-15T05:44:17.213Z,19.94
2023-06-15T05:46:45.218Z,20.13
2023-06-15T05:49:12.433Z,20.28
2023-06-15T05:51:40.706Z,20.43
2023-06-15T05:54:07.772Z,20.61
2023-06-15T05:56:36.541Z,20.82
2023-06-15T05:59:05.861Z,21.04
2023-06-15T06:01:37.604Z,21.22
2023-06-15T06:04:05.572Z,21.35
2023-06-15T06:06:32.775Z,21.50
2023-06-15T06:08:59.980Z,21.66
2023-06-15T06:11:28.376Z,21.88
2023-06-15T06:14:00.417Z,22.16
2023-06-15T06:16:28.079Z,22.43
2023-06-15T06:18:56.189Z,22.72
2023-06-15T06:21:23.711Z,23.00
2023-06-15T06:23:50.677Z,23.30
2023-06-15T06:26:18.007Z,23.61
2023-06-15T06:28:45.744Z,23.73
2023-06-15T06:31:12.820Z,23.68
2023-06-15T06:33:41.096Z,23.54
2023-06-15T06:36:09.072Z,23.37
2023-06-15T06:38:43.345Z,23.21
2023-06-15T06:41:20.978Z,23.15
2023-06-15T06:43:47.942Z,23.14
2023-06-15T06:46:15.686Z,23.14
2023-06-15T06:48:42.662Z,23.03
2023-06-15T06:51:09.676Z,22.92
2023-06-15T06:53:36.624Z,22.85
2023-06-15T06:56:03.531Z,22.79
2023-06-15T06:58:30.821Z,22.73
2023-06-15T07:00:58.182Z,22.64
2023-06-15T07:03:25.970Z,22.52
2023-06-15T07:05:53.382Z,22.38
2023-06-15T07:08:22.592Z,22.30
2023-06-15T07:10:49.580Z,22.34
2023-06-15T07:13:16.692Z,22.40
2023-06-15T07:15:43.673Z,22.38
2023-06-15T07:18:14.891Z,22.44
2023-06-15T07:20:42.234Z,22.73
2023-06-15T07:23:09.224Z,23.08
2023-06-15T07:25:36.842Z,23.40
2023-06-15T07:28:04.516Z,23.57
2023-06-15T07:30:31.653Z,23.67
2023-06-15T07:32:58.864Z,23.69
2023-06-15T07:35:26.157Z,23.68
2023-06-15T07:37:53.317Z,23.69
2023-06-15T07:40:20.818Z,23.83
2023-06-15T07:42:48.129Z,24.04
2023-06-15T07:45:15.297Z,24.18
2023-06-15T07:47:42.543Z,24.30
2023-06-15T07:50:10.446Z,24.40
2023-06-15T07:52:37.456Z,24.35
2023-06-15T07:55:05.743Z,24.22
2023-06-15T07:57:32.766Z,24.13
2023-06-15T08:00:04.029Z,24.09
2023-06-15T08:02:32.292Z,24.07
2023-06-15T08:04:59.637Z,24.05
2023-06-15T08:07:26.682Z,24.09
2023-06-15T08:09:53.635Z,24.04
2023-06-15T08:12:20.676Z,23.96
2023-06-15T08:14:48.247Z,23.84
2023-06-15T08:17:15.288Z,23.70
2023-06-15T08:19:42.661Z,23.65
2023-06-15T08:22:09.588Z,23.61
2023-06-15T08:24:36.589Z,23.53
2023-06-15T08:27:06.354Z,23.45
2023-06-15T08:29:33.405Z,23.34
2023-06-15T08:32:00.438Z,23.27
2023-06-15T08:34:27.383Z,23.28
2023-06-15T08:36:54.440Z,23.25
2023-06-15T08:39:21.990Z,23.20
2023-06-15T08:41:49.092Z,23.14
2023-06-15T08:44:16.203Z,23.11
2023-06-15T08:46:43.277Z,23.09
2023-06-15T08:49:11.304Z,23.07
2023-06-15T08:51:39.392Z,23.01
2023-06-15T08:54:06.941Z,22.93
2023-06-15T08:56:38.695Z,22.85
2023-06-15T08:59:05.886Z,22.81
2023-06-15T09:01:33.200Z,22.78
2023-06-15T09:04:01.453Z,22.74
2023-06-15T09:06:28.625Z,22.71
2023-06-15T09:08:55.684Z,22.74
2023-06-15T09:11:22.631Z,22.84
2023-06-15T09:13:54.715Z,22.99
2023-06-15T09:16:22.662Z,23.11
2023-06-15T09:18:52.620Z,23.14
2023-06-15T09:21:22.800Z,23.04
2023-06-15T09:23:49.961Z,22.90
2023-06-15T09:26:26.815Z,22.81
2023-06-15T09:28:58.062Z,22.77
2023-06-15T09:31:35.784Z,22.76
2023-06-15T09:34:06.637Z,22.75
2023-06-15T09:36:35.941Z,22.75
2023-06-15T09:39:06.872Z,22.74
2023-06-15T09:41:34.215Z,22.72
2023-06-15T09:44:03.520Z,22.76
2023-06-15T09:46:32.109Z,22.79
2023-06-15T09:48:59.247Z,22.85
2023-06-15T09:51:32.631Z,22.90
2023-06-15T09:53:59.989Z,22.98
2023-06-15T09:56:31.368Z,22.98
2023-06-15T09:59:03.183Z,22.90
2023-06-15T10:01:31.161Z,22.80
2023-06-15T10:03:58.544Z,22.70
2023-06-15T10:06:27.048Z,22.66
2023-06-15T10:08:57.655Z,22.68
2023-06-15T10:11:24.660Z,22.68
2023-06-15T10:14:01.969Z,22.64
2023-06-15T10:16:29.299Z,22.62
2023-06-15T10:19:00.464Z,22.62
2023-06-15T10:21:29.666Z,22.64
2023-06-15T10:23:57.457Z,22.63
2023-06-15T10:26:24.485Z,22.60
2023-06-15T10:28:56.212Z,22.59
2023-06-15T10:31:33.644Z,22.56
2023-06-15T10:34:12.116Z,22.56
2023-06-15T10:36:47.515Z,22.57
2023-06-15T10:39:22.924Z,22.54
2023-06-15T10:41:56.416Z,22.54
2023-06-15T10:44:31.129Z,22.54
2023-06-15T10:47:14.088Z,22.53
2023-06-15T10:49:51.752Z,22.53
2023-06-15T10:52:19.317Z,22.54
2023-06-15T10:54:46.965Z,22.55
2023-06-15T10:57:18.112Z,22.57
2023-06-15T10:59:50.338Z,22.58
2023-06-15T11:02:30.294Z,22.62
2023-06-15T11:05:01.330Z,22.66
2023-06-15T11:07:36.200Z,22.69
2023-06-15T11:10:10.932Z,22.69
2023-06-15T11:12:40.139Z,22.71
2023-06-15T11:15:09.585Z,22.71
2023-06-15T11:18:16.194Z,22.70
2023-06-15T11:20:53.394Z,22.72
2023-06-15T11:23:24.239Z,22.74
2023-06-15T11:25:55.070Z,22.77
2023-06-15T11:28:35.870Z,22.78
2023-06-15T11:31:05.397Z,22.79
2023-06-15T11:33:37.420Z,22.81
2023-06-15T11:36:05.995Z,22.82
2023-06-15T11:38:34.077Z,22.81
2023-06-15T11:41:10.937Z,22.80
2023-06-15T11:43:43.268Z,22.80
2023-06-15T11:46:14.287Z,22.81
2023-06-15T11:48:42.900Z,22.81
2023-06-15T11:51:11.735Z,22.81
2023-06-15T11:53:39.928Z,22.83
2023-06-15T11:56:17.081Z,22.86
2023-06-15T11:58:45.764Z,22.92
2023-06-15T12:01:13.142Z,22.99
2023-06-15T12:04:03.566Z,23.05
2023-06-15T12:06:34.104Z,23.10
2023-06-15T12:09:01.198Z,23.13
2023-06-15T12:11:28.795Z,23.15
2023-06-15T12:14:24.575Z,23.14
2023-06-15T12:16:52.519Z,23.13
2023-06-15T12:19:20.725Z,23.14
2023-06-15T12:21:47.906Z,23.17
2023-06-15T12:24:19.605Z,23.21
2023-06-15T12:26:51.276Z,23.24
2023-06-15T12:29:19.500Z,23.25
2023-06-15T12:31:56.250Z,23.27
2023-06-15T12:34:25.862Z,23.30
2023-06-15T12:36:53.343Z,23.32
2023-06-15T12:39:20.759Z,23.32
2023-06-15T12:41:48.314Z,23.33
2023-06-15T12:44:15.255Z,23.36
2023-06-15T12:46:42.708Z,23.39
2023-06-15T12:49:10.810Z,23.44
2023-06-15T12:51:39.160Z,23.50
2023-06-15T12:54:06.548Z,23.57
2023-06-15T12:56:34.589Z,23.62
2023-06-15T12:59:02.653Z,23.67
2023-06-15T13:01:30.427Z,23.70
2023-06-15T13:03:57.702Z,23.74
2023-06-15T13:06:25.664Z,23.77
2023-06-15T13:08:52.895Z,23.78
2023-06-15T13:11:20.085Z,23.79
2023-06-15T13:13:48.324Z,23.79
2023-06-15T13:28:35.832Z,23.86
2023-06-15T13:31:03.493Z,23.84
2023-06-15T13:33:31.051Z,23.84
2023-06-15T13:35:58.714Z,23.83
2023-06-15T13:38:31.666Z,23.82
2023-06-15T13:40:59.604Z,23.81
2023-06-15T13:43:27.231Z,23.83
2023-06-15T13:45:55.028Z,23.86
2023-06-15T13:48:23.482Z,23.90
2023-06-15T13:50:52.366Z,23.93
2023-06-15T13:53:20.044Z,23.94
2023-06-15T13:55:48.332Z,23.95
2023-06-15T13:58:15.997Z,23.95
2023-06-15T14:00:44.852Z,23.95
2023-06-15T14:03:12.752Z,23.96
2023-06-15T14:05:40.533Z,23.97
2023-06-15T14:08:08.256Z,23.96
2023-06-15T14:10:36.347Z,23.96
2023-06-15T14:13:03.985Z,23.95
2023-06-15T14:15:32.192Z,23.95
2023-06-15T14:17:59.835Z,23.94
2023-06-15T14:20:27.687Z,23.92
2023-06-15T14:22:55.371Z,23.92
2023-06-15T14:25:23.217Z,23.94
2023-06-15T14:27:50.903Z,23.97
2023-06-15T14:30:19.055Z,23.99
2023-06-15T14:32:47.034Z,24.02
2023-06-15T14:35:14.990Z,24.02
2023-06-15T14:37:42.656Z,24.04
2023-06-15T14:40:10.734Z,24.06
2023-06-15T14:42:48.214Z,24.07
2023-06-15T14:45:17.002Z,24.07
2023-06-15T14:47:44.922Z,24.08
2023-06-15T14:50:12.745Z,24.10
2023-06-15T14:52:41.140Z,24.14
2023-06-15T14:55:09.344Z,24.18
2023-06-15T14:57:37.164Z,24.24
2023-06-15T15:00:09.017Z,24.29
2023-06-15T15:02:36.787Z,24.36
2023-06-15T15:05:05.081Z,24.42
2023-06-15T15:07:32.710Z,24.47
2023-06-15T15:10:02.429Z,24.49
2023-06-15T15:12:30.537Z,24.52
2023-06-15T15:14:58.150Z,24.48
2023-06-15T15:17:26.472Z,24.42
2023-06-15T15:19:54.911Z,24.32
2023-06-15T15:22:23.043Z,24.16
2023-06-15T15:24:50.851Z,24.01
2023-06-15T15:27:18.514Z,23.81
2023-06-15T15:29:46.196Z,23.58
2023-06-15T15:32:13.835Z,23.31
2023-06-15T15:34:41.698Z,23.06
2023-06-15T15:37:09.672Z,22.86
2023-06-15T15:39:37.366Z,22.62
2023-06-15T15:42:08.413Z,22.31
2023-06-15T15:44:36.199Z,22.04
2023-06-15T15:47:06.239Z,21.79
2023-06-15T15:49:34.026Z,21.58
2023-06-15T15:52:01.683Z,21.39
2023-06-15T15:54:29.243Z,21.28
2023-06-15T15:56:57.210Z,21.23
2023-06-15T15:59:24.892Z,21.20
2023-06-15T16:01:55.322Z,21.17
2023-06-15T16:04:23.196Z,21.17
2023-06-15T16:06:51.140Z,21.15
2023-06-15T16:09:19.018Z,21.14
2023-06-15T16:11:46.781Z,21.11
2023-06-15T16:14:14.432Z,21.11
2023-06-15T16:16:42.236Z,21.12
2023-06-15T16:19:10.263Z,21.14
2023-06-15T16:21:38.058Z,21.15
2023-06-15T16:24:06.531Z,21.19
2023-06-15T16:26:34.322Z,21.22
2023-06-15T16:29:02.044Z,21.26
2023-06-15T16:31:29.869Z,21.28
2023-06-15T16:33:58.202Z,21.29
2023-06-15T16:36:26.458Z,21.29
2023-06-15T16:38:54.257Z,21.32
2023-06-15T16:41:21.999Z,21.35
2023-06-15T16:43:49.651Z,21.37
2023-06-15T16:46:17.357Z,21.38
2023-06-15T16:48:45.079Z,21.40
2023-06-15T16:51:12.751Z,21.40
2023-06-15T16:53:40.812Z,21.38
2023-06-15T16:56:08.814Z,21.37
2023-06-15T16:58:36.649Z,21.36
2023-06-15T17:01:04.677Z,21.36
2023-06-15T17:03:33.079Z,21.36
2023-06-15T17:06:01.267Z,21.39
2023-06-15T17:08:29.004Z,21.40
2023-06-15T17:10:56.692Z,21.37
2023-06-15T17:13:24.394Z,21.33
2023-06-15T17:15:52.162Z,21.30
2023-06-15T17:18:20.193Z,21.30
2023-06-15T17:20:48.057Z,21.29
2023-06-15T17:23:15.918Z,21.30
2023-06-15T17:25:43.600Z,21.31
2023-06-15T17:28:13.906Z,21.32
2023-06-15T17:30:42.513Z,21.31
2023-06-15T17:33:10.298Z,21.30
2023-06-15T17:35:38.120Z,21.30
2023-06-15T17:38:06.825Z,21.33
2023-06-15T17:40:34.878Z,21.34
2023-06-15T17:43:02.981Z,21.32
2023-06-15T17:45:30.715Z,21.31
2023-06-15T17:47:58.416Z,21.28
2023-06-15T17:50:26.141Z,21.26
2023-06-15T17:52:54.110Z,21.27
2023-06-15T17:55:21.790Z,21.25
2023-06-15T17:57:49.434Z,21.22
2023-06-15T18:00:18.035Z,21.23
2023-06-15T18:02:46.398Z,21.23
2023-06-15T18:05:14.267Z,21.23
2023-06-15T18:07:42.031Z,21.24
2023-06-15T18:10:09.895Z,21.23
2023-06-15T18:12:37.805Z,21.20
2023-06-15T18:15:06.445Z,21.13
2023-06-15T18:17:34.497Z,21.08
2023-06-15T18:20:02.528Z,21.05
2023-06-15T18:22:30.824Z,21.00
2023-06-15T18:24:58.635Z,20.95
2023-06-15T18:27:26.393Z,20.90
2023-06-15T18:29:54.365Z,20.87
2023-06-15T18:32:24.725Z,20.86
2023-06-15T18:34:57.638Z,20.86
2023-06-15T18:37:26.174Z,20.86
2023-06-15T18:39:56.765Z,20.84
2023-06-15T18:42:24.799Z,20.82
2023-06-15T18:44:52.418Z,20.80
2023-06-15T18:47:20.796Z,20.81
2023-06-15T18:49:51.837Z,20.80
2023-06-15T18:52:20.129Z,20.79
2023-06-15T18:54:47.774Z,20.76
2023-06-15T18:57:18.223Z,20.74
2023-06-15T18:59:46.476Z,20.73
2023-06-15T19:02:19.102Z,20.72
2023-06-15T19:04:47.229Z,20.70
2023-06-15T19:07:15.526Z,20.65
2023-06-15T19:09:43.684Z,20.64
2023-06-15T19:12:12.596Z,20.63
2023-06-15T19:14:40.359Z,20.62
2023-06-15T19:17:11.176Z,20.58
2023-06-15T19:19:39.241Z,20.52
2023-06-15T19:22:07.315Z,20.51
2023-06-15T19:24:35.464Z,20.49
2023-06-15T19:27:03.883Z,20.46
2023-06-15T19:29:31.953Z,20.42
2023-06-15T19:31:59.804Z,20.39
2023-06-15T19:34:27.459Z,20.35
2023-06-15T19:36:56.261Z,20.32
2023-06-15T19:39:24.527Z,20.30
2023-06-15T19:41:52.705Z,20.28
2023-06-15T19:44:20.508Z,20.24
2023-06-15T19:46:48.267Z,20.22
2023-06-15T19:49:16.196Z,20.20
2023-06-15T19:51:43.982Z,20.18
2023-06-15T19:54:12.132Z,20.17
2023-06-15T19:56:41.822Z,20.15
2023-06-15T19:59:26.741Z,20.12
2023-06-15T20:01:56.382Z,20.07
2023-06-15T20:04:24.285Z,20.03
2023-06-15T20:06:52.267Z,20.00
2023-06-15T20:09:20.020Z,20.01
2023-06-15T20:11:47.915Z,20.02
2023-06-15T20:14:15.957Z,20.00
2023-06-15T20:16:43.804Z,19.97
2023-06-15T20:19:13.226Z,19.96
2023-06-15T20:21:41.912Z,19.93
2023-06-15T20:24:09.620Z,19.91
2023-06-15T20:26:37.364Z,19.87
2023-06-15T20:29:05.248Z,19.84
2023-06-15T20:31:32.989Z,19.81
2023-06-15T20:34:00.844Z,19.80
2023-06-15T20:36:29.012Z,19.80
2023-06-15T20:38:56.673Z,19.79
2023-06-15T20:41:25.072Z,19.79
2023-06-15T20:43:52.713Z,19.78
2023-06-15T20:46:22.145Z,19.77
2023-06-15T20:48:50.186Z,19.76
2023-06-15T20:51:17.950Z,19.76
2023-06-15T20:53:45.727Z,19.77
2023-06-15T20:56:13.584Z,19.78
2023-06-15T20:58:41.469Z,19.79
2023-06-15T21:01:09.202Z,19.78
2023-06-15T21:03:37.415Z,19.76
2023-06-15T21:06:05.657Z,19.76
2023-06-15T21:08:33.562Z,19.78
2023-06-15T21:11:02.336Z,19.81
2023-06-15T21:13:32.327Z,19.83
2023-06-15T21:16:02.375Z,19.84
2023-06-15T21:18:31.653Z,19.85
2023-06-15T21:20:59.830Z,19.87
2023-06-15T21:23:27.814Z,19.88
2023-06-15T21:25:55.457Z,19.90
2023-06-15T21:28:23.199Z,19.91
2023-06-15T21:30:51.022Z,19.86
2023-06-15T21:33:20.898Z,19.82
2023-06-15T21:35:48.676Z,19.81
2023-06-15T21:38:18.060Z,19.79
2023-06-15T21:40:45.777Z,19.81
2023-06-15T21:43:13.498Z,19.82
2023-06-15T21:45:41.702Z,19.81
2023-06-15T21:48:09.577Z,19.80
2023-06-15T21:50:37.914Z,19.79
2023-06-15T21:53:05.590Z,19.77
2023-06-15T21:55:33.333Z,19.76
2023-06-15T21:58:01.028Z,19.74
2023-06-15T22:00:29.174Z,19.73
2023-06-15T22:02:57.393Z,19.70
2023-06-15T22:05:25.503Z,19.68
2023-06-15T22:07:55.171Z,19.66
2023-06-15T22:10:23.037Z,19.64
2023-06-15T22:12:50.958Z,19.60
2023-06-15T22:15:18.637Z,19.56
2023-06-15T22:17:46.290Z,19.55
2023-06-15T22:20:15.631Z,19.51
2023-06-15T22:22:43.415Z,19.49
2023-06-15T22:25:11.681Z,19.48
2023-06-15T22:27:39.428Z,19.45
2023-06-15T22:30:08.643Z,19.43
2023-06-15T22:32:37.003Z,19.43
2023-06-15T22:35:05.260Z,19.44
2023-06-15T22:37:32.910Z,19.40
2023-06-15T22:40:01.001Z,19.36
2023-06-15T22:42:28.636Z,19.34
2023-06-15T22:44:57.834Z,19.33
2023-06-15T22:47:27.236Z,19.32
2023-06-15T22:49:55.512Z,19.31
2023-06-15T22:52:23.706Z,19.28
2023-06-15T22:54:51.456Z,19.25
2023-06-15T22:57:19.568Z,19.22
2023-06-15T22:59:47.202Z,19.22
2023-06-15T23:02:17.638Z,19.23
2023-06-15T23:04:46.149Z,19.23
2023-06-15T23:07:14.375Z,19.22
2023-06-15T23:09:42.030Z,19.21
2023-06-15T23:12:13.589Z,19.19
2023-06-15T23:14:41.615Z,19.18
2023-06-15T23:17:09.442Z,19.20
2023-06-15T23:19:37.903Z,19.20
2023-06-15T23:22:06.610Z,19.19
2023-06-15T23:24:34.804Z,19.16
2023-06-15T23:27:04.369Z,19.12
2023-06-15T23:29:35.439Z,19.11
2023-06-15T23:32:03.094Z,19.09
2023-06-15T23:34:30.950Z,19.08
2023-06-15T23:36:58.604Z,19.09
2023-06-15T23:39:26.265Z,19.11
2023-06-15T23:41:54.142Z,19.12
2023-06-15T23:44:21.797Z,19.11
2023-06-15T23:46:49.502Z,19.08
2023-06-15T23:49:17.226Z,19.06
2023-06-15T23:51:44.876Z,19.04
2023-06-15T23:54:13.688Z,19.05
2023-06-15T23:56:41.842Z,19.05
2023-06-15T23:59:09.824Z,19.04
